Time;durP1;ratioP1;P1;durP2;ratioP2;P2;SDS_P1;SDS_P2;PMS_P1;PMS_P2;Temp;Humidity;BMP_temperature;BMP_pressure;BME280_temperature;BME280_humidity;BME280_pressure;Samples;Min_cycle;Max_cycle;Signal;HPM_P1;HPM_P2
2022/10/12 04:03:30;;;;;;;12.80;8.70;;;11.90;99.90;;;;;;6141401;23;20448;-64
2022/10/12 04:05:57;;;;;;;9.73;8.17;;;11.90;99.90;;;;;;5011662;28;20443;-64
2022/10/12 04:08:23;;;;;;;12.40;10.17;;;11.90;99.90;;;;;;5013702;28;20203;-63
2022/10/12 04:10:49;;;;;;;10.00;8.10;;;11.90;99.90;;;;;;5014062;28;20423;-63
2022/10/12 04:13:16;;;;;;;13.63;8.97;;;11.90;99.90;;;;;;5014061;28;20415;-63
2022/10/12 04:15:41;;;;;;;12.43;10.13;;;11.90;99.90;;;;;;5006943;28;20488;-62
2022/10/12 04:18:07;;;;;;;14.57;8.60;;;11.90;99.90;;;;;;4987425;28;20420;-64
2022/10/12 04:20:33;;;;;;;16.20;10.70;;;11.90;99.90;;;;;;5014144;28;20176;-63
2022/10/12 04:22:58;;;;;;;13.20;9.50;;;11.90;99.90;;;;;;5013992;28;20196;-63
2022/10/12 04:25:24;;;;;;;14.97;9.47;;;11.90;99.90;;;;;;5014110;28;20224;-63
2022/10/12 04:27:50;;;;;;;14.53;9.90;;;11.90;99.90;;;;;;5005849;28;20181;-63
2022/10/12 04:30:15;;;;;;;13.77;9.33;;;11.90;99.90;;;;;;4994782;28;20687;-63
2022/10/12 04:32:41;;;;;;;14.20;10.47;;;11.90;99.90;;;;;;4994321;28;20414;-64
2022/10/12 04:35:07;;;;;;;20.27;11.37;;;11.90;99.90;;;;;;4993289;28;20191;-64
2022/10/12 04:37:32;;;;;;;22.50;11.20;;;12.00;99.90;;;;;;4994628;28;20196;-64
2022/10/12 04:39:58;;;;;;;14.00;10.13;;;12.00;99.90;;;;;;4994589;28;20511;-64
2022/10/12 04:42:23;;;;;;;16.30;11.55;;;12.00;99.90;;;;;;5005100;28;20516;-61
2022/10/12 04:44:49;;;;;;;22.50;11.10;;;12.00;99.90;;;;;;5013487;28;20205;-64
2022/10/12 04:47:15;;;;;;;18.93;10.53;;;12.00;99.90;;;;;;5014135;28;20170;-63
2022/10/12 04:49:40;;;;;;;12.67;10.10;;;12.00;99.90;;;;;;5013803;28;20176;-64
2022/10/12 04:52:06;;;;;;;19.53;11.40;;;12.00;99.90;;;;;;4996193;28;20173;-64
2022/10/12 04:54:31;;;;;;;13.47;10.53;;;12.00;99.90;;;;;;5013321;28;20201;-64
2022/10/12 04:56:57;;;;;;;15.53;10.07;;;12.00;99.90;;;;;;5004364;28;20194;-63
2022/10/12 04:59:23;;;;;;;14.23;9.17;;;12.00;99.90;;;;;;4994234;28;20189;-64
2022/10/12 05:01:49;;;;;;;18.03;9.90;;;12.00;99.90;;;;;;5001735;28;20425;-64
2022/10/12 05:04:14;;;;;;;17.10;10.57;;;12.10;99.90;;;;;;4999661;28;20213;-64
2022/10/12 05:06:40;;;;;;;19.00;10.70;;;12.10;99.90;;;;;;4993874;28;20530;-64
2022/10/12 05:09:05;;;;;;;13.57;9.20;;;12.10;99.90;;;;;;4994069;28;20265;-64
2022/10/12 05:11:31;;;;;;;19.93;10.90;;;12.10;99.90;;;;;;5008643;28;20594;-64
2022/10/12 05:13:57;;;;;;;13.83;10.07;;;12.10;99.90;;;;;;5013062;28;20200;-64
2022/10/12 05:16:23;;;;;;;13.53;8.57;;;12.10;99.90;;;;;;5000824;28;20178;-64
2022/10/12 05:18:49;;;;;;;11.20;8.77;;;12.10;99.90;;;;;;4993928;28;20402;-64
2022/10/12 05:21:14;;;;;;;10.33;7.50;;;12.10;99.90;;;;;;4997500;28;20631;-64
2022/10/12 05:23:40;;;;;;;9.63;8.00;;;12.10;99.90;;;;;;5013351;28;20210;-64
2022/10/12 05:26:05;;;;;;;16.70;9.40;;;12.10;99.90;;;;;;5013659;28;20215;-64
2022/10/12 05:28:31;;;;;;;11.07;9.00;;;12.20;99.90;;;;;;5013228;28;20544;-64
2022/10/12 05:30:57;;;;;;;11.80;8.77;;;12.20;99.90;;;;;;5013490;28;20178;-62
2022/10/12 05:33:22;;;;;;;11.60;8.27;;;12.20;99.90;;;;;;5009326;28;20636;-64
2022/10/12 05:35:48;;;;;;;12.40;9.27;;;12.20;99.90;;;;;;4993720;28;20182;-63
2022/10/12 05:38:13;;;;;;;9.40;8.13;;;12.20;99.90;;;;;;4993784;28;20178;-67
2022/10/12 05:40:39;;;;;;;11.70;8.03;;;12.20;99.90;;;;;;5008416;28;20239;-63
2022/10/12 05:43:05;;;;;;;11.03;7.80;;;12.20;99.90;;;;;;5012917;28;20223;-65
2022/10/12 05:45:30;;;;;;;10.00;7.73;;;12.20;99.90;;;;;;5013463;28;20197;-63
2022/10/12 05:47:56;;;;;;;11.30;8.10;;;12.20;99.90;;;;;;4998876;28;20632;-65
2022/10/12 05:50:21;;;;;;;11.37;8.20;;;12.20;99.90;;;;;;4993451;28;20166;-67
2022/10/12 05:52:48;;;;;;;14.30;8.67;;;12.20;99.90;;;;;;4992977;28;20178;-66
2022/10/12 05:55:14;;;;;;;9.00;8.10;;;12.30;99.90;;;;;;5009208;28;20202;-66
2022/10/12 05:57:40;;;;;;;10.77;8.10;;;12.30;99.90;;;;;;5013299;28;20766;-64
2022/10/12 06:00:07;;;;;;;10.93;8.73;;;12.30;99.90;;;;;;5013134;28;20650;-65
2022/10/12 06:02:33;;;;;;;11.50;7.83;;;12.30;99.90;;;;;;5013266;28;20191;-64
2022/10/12 06:04:59;;;;;;;11.07;8.70;;;12.20;99.90;;;;;;5012710;28;20534;-67
2022/10/12 06:07:25;;;;;;;16.67;7.50;;;12.20;99.90;;;;;;4995351;28;20567;-66
2022/10/12 06:09:51;;;;;;;11.33;8.70;;;12.20;99.90;;;;;;5009406;28;20848;-65
2022/10/12 06:12:17;;;;;;;11.37;8.10;;;12.30;99.90;;;;;;4996068;28;20440;-65
2022/10/12 06:14:42;;;;;;;12.47;8.13;;;12.30;99.90;;;;;;4992812;28;20201;-65
2022/10/12 06:17:08;;;;;;;10.53;7.60;;;12.30;99.90;;;;;;5005304;28;20555;-65
2022/10/12 06:19:35;;;;;;;10.57;8.30;;;12.40;99.90;;;;;;5002690;28;20193;-66
2022/10/12 06:22:00;;;;;;;12.50;8.50;;;12.40;99.90;;;;;;4985330;28;20450;-66
2022/10/12 06:24:26;;;;;;;12.97;8.83;;;12.40;99.90;;;;;;5011555;28;20974;-65
2022/10/12 06:26:52;;;;;;;8.67;6.90;;;12.50;99.90;;;;;;5001762;28;20498;-65
2022/10/12 06:29:17;;;;;;;13.50;8.80;;;12.50;99.90;;;;;;4993117;28;20258;-65
2022/10/12 06:31:43;;;;;;;12.07;7.90;;;12.60;99.90;;;;;;4993024;28;20178;-66
2022/10/12 06:34:09;;;;;;;17.10;9.70;;;12.60;99.90;;;;;;4995834;28;20265;-65
2022/10/12 06:36:34;;;;;;;11.07;8.83;;;12.70;99.90;;;;;;4996884;28;20178;-67
2022/10/12 06:39:00;;;;;;;10.80;8.53;;;12.70;99.90;;;;;;4996568;28;20536;-65
2022/10/12 06:41:26;;;;;;;11.80;8.37;;;12.80;99.90;;;;;;4996769;28;20272;-66
2022/10/12 06:43:51;;;;;;;11.10;8.47;;;12.90;99.90;;;;;;4996049;28;20647;-65
2022/10/12 06:46:17;;;;;;;13.23;9.00;;;12.90;99.90;;;;;;4996914;28;20172;-65
2022/10/12 06:48:42;;;;;;;12.90;9.10;;;12.90;99.90;;;;;;4996519;28;20620;-67
2022/10/12 06:51:08;;;;;;;11.10;8.07;;;12.90;99.90;;;;;;4996624;28;20179;-66
2022/10/12 06:53:34;;;;;;;13.03;10.03;;;13.00;99.90;;;;;;4996400;28;20214;-65
2022/10/12 06:56:08;;;;;;;15.33;9.57;;;13.00;99.90;;;;;;4996520;28;20178;-64
2022/10/12 06:58:34;;;;;;;19.33;10.53;;;13.00;99.90;;;;;;4996548;28;20441;-65
2022/10/12 07:01:07;;;;;;;15.17;10.57;;;13.10;99.90;;;;;;4996378;28;20869;-65
2022/10/12 07:03:33;;;;;;;16.97;8.10;;;13.20;99.90;;;;;;4995822;28;20246;-64
2022/10/12 07:06:07;;;;;;;13.93;10.37;;;13.30;99.90;;;;;;4996277;28;20422;-65
2022/10/12 07:08:33;;;;;;;11.90;9.37;;;13.50;99.90;;;;;;4996353;28;20392;-66
2022/10/12 07:11:04;;;;;;;13.13;10.20;;;13.60;99.90;;;;;;4996277;28;20448;-64
2022/10/12 07:13:31;;;;;;;11.40;8.17;;;13.70;99.90;;;;;;4995577;28;20377;-67
2022/10/12 07:15:56;;;;;;;15.90;11.00;;;13.80;99.90;;;;;;4978548;28;20754;-65
2022/10/12 07:18:22;;;;;;;14.13;8.57;;;13.90;99.90;;;;;;4996034;28;20423;-67
2022/10/12 07:20:48;;;;;;;12.10;9.60;;;14.10;99.90;;;;;;4996214;28;20183;-66
2022/10/12 07:23:14;;;;;;;12.57;8.83;;;14.20;99.90;;;;;;4995660;28;20461;-66
2022/10/12 07:25:45;;;;;;;11.53;8.60;;;14.30;99.90;;;;;;4996057;28;20414;-65
2022/10/12 07:28:11;;;;;;;13.57;9.67;;;14.40;99.90;;;;;;4978399;28;20424;-66
2022/10/12 07:30:37;;;;;;;14.60;9.53;;;14.50;99.90;;;;;;4995778;28;20446;-65
2022/10/12 07:33:02;;;;;;;14.70;8.43;;;14.60;99.90;;;;;;4995101;28;20177;-65
2022/10/12 07:35:28;;;;;;;10.60;8.73;;;14.70;99.90;;;;;;4995580;28;20249;-65
2022/10/12 07:37:53;;;;;;;10.60;8.07;;;14.80;99.90;;;;;;4995680;28;20180;-65
2022/10/12 07:40:19;;;;;;;9.80;7.97;;;14.80;99.90;;;;;;4995513;28;20181;-67
2022/10/12 07:42:44;;;;;;;9.80;8.80;;;14.90;99.90;;;;;;4995271;28;20575;-65
2022/10/12 07:45:10;;;;;;;9.13;8.23;;;15.00;99.90;;;;;;4994935;28;20525;-72
2022/10/12 07:47:36;;;;;;;10.80;9.20;;;15.20;99.90;;;;;;4995459;28;20179;-73
2022/10/12 07:50:01;;;;;;;13.33;8.23;;;15.40;99.90;;;;;;4995380;28;20174;-74
2022/10/12 07:52:27;;;;;;;8.20;7.30;;;15.50;99.90;;;;;;4995445;28;20192;-68
2022/10/12 07:54:53;;;;;;;13.60;8.33;;;15.60;99.90;;;;;;4994735;28;20202;-65
2022/10/12 07:57:19;;;;;;;10.27;7.60;;;15.70;99.90;;;;;;4995443;28;20221;-64
2022/10/12 07:59:44;;;;;;;13.43;8.07;;;15.90;99.90;;;;;;4995297;28;20182;-66
2022/10/12 08:02:11;;;;;;;10.57;8.03;;;16.10;99.90;;;;;;4995069;28;20425;-66
2022/10/12 08:04:36;;;;;;;9.87;8.10;;;16.30;99.90;;;;;;4994359;28;20229;-63
2022/10/12 08:07:02;;;;;;;10.30;7.80;;;16.60;99.90;;;;;;5000394;28;20406;-62
2022/10/12 08:09:28;;;;;;;13.90;8.80;;;16.70;99.90;;;;;;5014680;28;20171;-65
2022/10/12 08:11:54;;;;;;;9.17;7.07;;;16.90;99.90;;;;;;5014441;28;20210;-64
2022/10/12 08:14:20;;;;;;;12.03;8.50;;;17.00;99.90;;;;;;4997077;28;20199;-63
2022/10/12 08:16:48;;;;;;;8.80;7.43;;;17.10;99.90;;;;;;5014347;28;20520;-64
2022/10/12 08:19:13;;;;;;;10.20;7.10;;;17.20;99.90;;;;;;5014294;28;20822;-66
2022/10/12 08:21:41;;;;;;;8.30;7.50;;;17.30;99.90;;;;;;5014230;28;20402;-66
2022/10/12 08:24:07;;;;;;;10.00;7.30;;;17.40;99.90;;;;;;5013895;28;20218;-62
2022/10/12 08:26:33;;;;;;;7.87;7.07;;;17.40;99.90;;;;;;5014233;28;20417;-64
2022/10/12 08:29:01;;;;;;;13.23;8.43;;;17.50;99.90;;;;;;5014552;28;20421;-65
2022/10/12 08:31:27;;;;;;;9.67;7.90;;;17.60;99.90;;;;;;5014306;28;20175;-62
2022/10/12 08:33:52;;;;;;;11.00;7.63;;;17.60;99.90;;;;;;5013580;28;20796;-64
2022/10/12 08:36:18;;;;;;;19.37;9.27;;;17.70;99.90;;;;;;5014131;28;20213;-66
2022/10/12 08:38:48;;;;;;;9.43;7.10;;;17.80;99.90;;;;;;5014355;28;20171;-65
2022/10/12 08:41:35;;;;;;;10.33;7.77;;;17.70;99.90;;;;;;5014266;28;20265;-68
2022/10/12 08:44:34;;;;;;;18.80;12.50;;;17.60;99.90;;;;;;5013618;28;20863;-62
2022/10/12 08:47:16;;;;;;;11.80;8.30;;;17.60;99.90;;;;;;5014587;28;20911;-62
2022/10/12 08:49:43;;;;;;;10.50;7.77;;;17.60;99.90;;;;;;5013743;28;20496;-64
2022/10/12 08:52:33;;;;;;;9.90;8.57;;;17.60;99.90;;;;;;5013881;28;20816;-62
2022/10/12 08:55:36;;;;;;;10.90;8.30;;;17.70;99.90;;;;;;5001508;28;20437;-65
2022/10/12 08:58:02;;;;;;;10.57;7.77;;;17.80;99.90;;;;;;5013306;28;20410;-64
2022/10/12 09:00:29;;;;;;;10.30;7.73;;;17.90;99.90;;;;;;5013874;28;20776;-63
2022/10/12 09:03:05;;;;;;;10.53;7.47;;;17.90;99.90;;;;;;5013497;28;20464;-66
2022/10/12 09:05:40;;;;;;;11.60;7.97;;;17.90;99.90;;;;;;5013514;28;20864;-63
2022/10/12 09:08:26;;;;;;;7.33;6.50;;;18.10;99.90;;;;;;5013643;28;20405;-63
2022/10/12 09:11:06;;;;;;;9.67;7.77;;;18.40;99.90;;;;;;4995771;28;20416;-63
2022/10/12 09:13:40;;;;;;;12.67;8.70;;;18.50;99.90;;;;;;5013227;28;20416;-65
2022/10/12 09:16:16;;;;;;;7.77;6.70;;;18.50;99.90;;;;;;5013330;28;20416;-66
2022/10/12 09:18:56;;;;;;;12.33;7.33;;;18.50;99.90;;;;;;5013769;28;20391;-66
2022/10/12 09:21:25;;;;;;;9.57;6.43;;;18.60;99.90;;;;;;5013347;28;20409;-65
2022/10/12 09:23:53;;;;;;;8.43;6.87;;;18.60;99.90;;;;;;5012964;28;20564;-63
2022/10/12 09:26:28;;;;;;;7.53;6.20;;;18.70;99.90;;;;;;5013370;28;20406;-65
2022/10/12 09:28:56;;;;;;;7.63;6.30;;;18.80;99.90;;;;;;5013642;28;20417;-63
2022/10/12 09:31:28;;;;;;;9.60;6.90;;;18.80;99.90;;;;;;5013167;28;20414;-64
2022/10/12 09:33:59;;;;;;;10.67;8.17;;;18.60;99.90;;;;;;4996814;28;20960;-63
2022/10/12 09:36:29;;;;;;;11.60;6.50;;;18.50;99.90;;;;;;4993681;28;20435;-63
2022/10/12 09:38:58;;;;;;;9.33;7.07;;;18.50;99.90;;;;;;4993510;28;20473;-64
2022/10/12 09:41:36;;;;;;;8.40;5.90;;;18.40;99.90;;;;;;4993536;28;20422;-65
2022/10/12 09:44:05;;;;;;;8.70;5.70;;;18.30;99.90;;;;;;4975753;28;20470;-61
2022/10/12 09:46:40;;;;;;;10.17;5.93;;;18.20;99.90;;;;;;4976051;28;20486;-65
2022/10/12 09:49:06;;;;;;;12.27;7.00;;;18.20;99.90;;;;;;4993743;28;20386;-64
2022/10/12 09:51:32;;;;;;;9.77;6.47;;;18.00;99.90;;;;;;4993459;28;20421;-64
2022/10/12 09:54:02;;;;;;;8.33;7.50;;;18.00;99.90;;;;;;4993284;28;20545;-63
2022/10/12 09:56:38;;;;;;;7.43;5.40;;;18.00;99.90;;;;;;4993385;28;20374;-65
2022/10/12 09:59:25;;;;;;;10.60;6.13;;;18.00;99.90;;;;;;4993860;28;20414;-62
2022/10/12 10:02:10;;;;;;;6.67;5.97;;;18.00;99.90;;;;;;4993481;28;20410;-65
2022/10/12 10:04:40;;;;;;;10.00;6.20;;;18.00;99.90;;;;;;4993151;28;20819;-65
2022/10/12 10:07:24;;;;;;;6.53;5.77;;;18.00;99.90;;;;;;4993836;28;20742;-64
2022/10/12 10:10:11;;;;;;;11.80;6.57;;;18.00;99.90;;;;;;4997202;28;20406;-64
2022/10/12 10:12:42;;;;;;;8.27;6.13;;;18.00;99.90;;;;;;4996593;28;20414;-64
2022/10/12 10:15:19;;;;;;;5.70;5.10;;;18.00;99.90;;;;;;4997133;28;20433;-63
2022/10/12 10:17:52;;;;;;;11.20;6.93;;;18.00;99.90;;;;;;4997046;28;20430;-62
2022/10/12 10:20:39;;;;;;;8.93;6.33;;;18.00;99.90;;;;;;4997064;28;20411;-61
2022/10/12 10:23:05;;;;;;;10.17;6.60;;;18.00;99.90;;;;;;4997309;28;20425;-65
2022/10/12 10:25:32;;;;;;;8.60;6.23;;;17.90;99.90;;;;;;4996927;28;20434;-63
2022/10/12 10:28:31;;;;;;;8.03;5.67;;;17.90;99.90;;;;;;4997096;28;20211;-65
2022/10/12 10:31:01;;;;;;;12.43;5.30;;;17.90;99.90;;;;;;4996448;28;20393;-65
2022/10/12 10:33:33;;;;;;;7.73;6.20;;;17.80;99.90;;;;;;4996541;28;20769;-64
2022/10/12 10:36:05;;;;;;;7.00;5.70;;;17.90;99.90;;;;;;4996685;28;20817;-64
2022/10/12 10:38:44;;;;;;;12.03;6.30;;;17.90;99.90;;;;;;4996716;28;20415;-65
2022/10/12 10:41:16;;;;;;;8.67;6.80;;;17.90;99.90;;;;;;4996736;28;20407;-64
2022/10/12 10:43:46;;;;;;;6.70;5.00;;;17.90;99.90;;;;;;4996237;28;20541;-62
2022/10/12 10:46:13;;;;;;;8.23;7.43;;;17.90;99.90;;;;;;4996701;28;20398;-65
2022/10/12 10:48:52;;;;;;;6.13;5.33;;;17.90;99.90;;;;;;4996690;28;20408;-64
2022/10/12 10:51:18;;;;;;;12.57;7.37;;;17.90;99.90;;;;;;4996823;28;20441;-63
2022/10/12 10:53:49;;;;;;;7.90;5.90;;;17.90;99.90;;;;;;4996166;28;20492;-63
2022/10/12 10:56:23;;;;;;;6.77;6.07;;;17.80;99.90;;;;;;4996353;28;21016;-62
2022/10/12 10:58:51;;;;;;;8.00;5.97;;;17.90;99.90;;;;;;4996234;28;20920;-62
2022/10/12 11:01:40;;;;;;;6.57;5.93;;;17.90;99.90;;;;;;5010393;28;20422;-64
2022/10/12 11:04:19;;;;;;;7.60;5.17;;;17.90;99.90;;;;;;5015257;28;20820;-63
2022/10/12 11:06:53;;;;;;;7.73;6.70;;;17.90;99.90;;;;;;5015716;28;20414;-64
2022/10/12 11:09:20;;;;;;;7.10;5.70;;;17.90;99.90;;;;;;5015901;28;20768;-65
2022/10/12 11:11:56;;;;;;;8.53;5.90;;;17.90;99.90;;;;;;5015774;28;20406;-64
2022/10/12 11:14:27;;;;;;;10.90;6.37;;;17.80;99.90;;;;;;5015258;28;20425;-63
2022/10/12 11:17:02;;;;;;;10.37;6.50;;;17.80;99.90;;;;;;5015606;28;20928;-64
2022/10/12 11:19:39;;;;;;;8.37;5.40;;;17.90;99.90;;;;;;5014712;28;20444;-65
2022/10/12 11:22:09;;;;;;;5.83;5.23;;;18.10;99.90;;;;;;5015684;28;20412;-61
2022/10/12 11:25:00;;;;;;;6.77;5.53;;;18.20;99.90;;;;;;5015395;28;20819;-63
2022/10/12 11:27:35;;;;;;;9.00;6.10;;;18.40;99.90;;;;;;4966045;28;20864;-64
2022/10/12 11:30:06;;;;;;;10.43;6.87;;;18.40;99.90;;;;;;5015735;28;20404;-65
2022/10/12 11:32:36;;;;;;;7.90;6.03;;;18.50;99.90;;;;;;5015757;28;20467;-64
2022/10/12 11:35:06;;;;;;;8.93;5.60;;;18.60;99.90;;;;;;5015341;28;20513;-66
2022/10/12 11:37:37;;;;;;;5.80;4.50;;;18.70;99.90;;;;;;4998001;28;20441;-65
2022/10/12 11:40:07;;;;;;;8.53;5.97;;;18.80;99.90;;;;;;5015158;28;20384;-68
2022/10/12 11:42:40;;;;;;;9.07;6.20;;;18.90;99.90;;;;;;5015643;28;20411;-68
2022/10/12 11:45:19;;;;;;;7.03;5.27;;;19.00;99.90;;;;;;5015797;28;20407;-65
2022/10/12 11:47:50;;;;;;;9.30;5.60;;;18.90;99.90;;;;;;5015883;28;20398;-67
2022/10/12 11:50:38;;;;;;;7.00;6.20;;;18.90;99.90;;;;;;4998380;28;20452;-68
2022/10/12 11:53:13;;;;;;;6.00;5.40;;;18.90;99.90;;;;;;5008979;28;20422;-65
2022/10/12 11:55:45;;;;;;;7.23;4.90;;;18.80;99.90;;;;;;5003740;28;20808;-64
2022/10/12 11:58:18;;;;;;;11.43;5.83;;;18.70;99.90;;;;;;5002944;28;20382;-67
2022/10/12 12:00:52;;;;;;;7.00;5.93;;;18.70;99.90;;;;;;5004338;28;20421;-64
2022/10/12 12:03:38;;;;;;;7.60;5.77;;;18.80;99.90;;;;;;5003050;28;20433;-64
2022/10/12 12:06:28;;;;;;;6.50;4.57;;;18.90;99.90;;;;;;4954360;28;20837;-69
2022/10/12 12:08:54;;;;;;;8.13;5.60;;;18.80;99.90;;;;;;5002344;28;20402;-63
2022/10/12 12:11:25;;;;;;;8.87;5.40;;;18.90;99.90;;;;;;5006578;28;20441;-64
2022/10/12 12:14:19;;;;;;;8.10;6.00;;;18.80;99.90;;;;;;5002287;28;20192;-63
2022/10/12 12:16:46;;;;;;;7.43;6.60;;;18.80;99.90;;;;;;5009752;28;20811;-66
2022/10/12 12:19:13;;;;;;;6.73;5.00;;;18.80;99.90;;;;;;5014408;28;20410;-65
2022/10/12 12:22:13;;;;;;;9.57;6.13;;;18.90;99.90;;;;;;5014560;28;20398;-66
2022/10/12 12:25:04;;;;;;;8.67;5.33;;;19.10;99.90;;;;;;5013925;28;20472;-66
2022/10/12 12:27:43;;;;;;;5.70;4.97;;;19.10;99.90;;;;;;5000187;28;20414;-65
2022/10/12 12:30:18;;;;;;;7.30;4.53;;;19.30;99.90;;;;;;5014117;28;20406;-64
2022/10/12 12:32:57;;;;;;;8.33;5.43;;;19.30;99.90;;;;;;5014068;28;20444;-63
2022/10/12 12:35:38;;;;;;;8.30;5.27;;;19.30;99.90;;;;;;4997234;28;20434;-65
2022/10/12 12:38:16;;;;;;;6.63;5.20;;;19.40;99.90;;;;;;4993071;28;20442;-64
2022/10/12 12:41:04;;;;;;;6.73;5.23;;;19.30;99.90;;;;;;4993760;28;20406;-63
2022/10/12 12:43:31;;;;;;;5.20;4.53;;;19.40;99.90;;;;;;4993862;28;20548;-64
2022/10/12 12:46:09;;;;;;;7.23;3.83;;;19.40;99.90;;;;;;4994026;28;20518;-65
2022/10/12 12:48:37;;;;;;;8.13;5.30;;;19.40;99.90;;;;;;4994254;28;20175;-63
2022/10/12 12:51:13;;;;;;;5.83;4.50;;;19.40;99.90;;;;;;4994004;28;20385;-64
2022/10/12 12:54:07;;;;;;;10.77;6.07;;;19.30;99.90;;;;;;4993677;28;20433;-63
2022/10/12 12:56:36;;;;;;;5.40;4.20;;;19.40;99.90;;;;;;4992078;28;20423;-65
2022/10/12 12:59:10;;;;;;;5.80;4.10;;;19.40;99.90;;;;;;4993220;28;20429;-63
2022/10/12 13:02:04;;;;;;;5.23;4.23;;;19.50;99.90;;;;;;4993622;28;20493;-63
2022/10/12 13:04:44;;;;;;;8.30;4.27;;;19.50;99.90;;;;;;4993631;28;20521;-65
2022/10/12 13:07:51;;;;;;;5.30;4.70;;;19.50;99.90;;;;;;4993847;28;20422;-64
2022/10/12 13:10:26;;;;;;;4.93;4.10;;;19.50;99.90;;;;;;4994121;28;20418;-63
2022/10/12 13:12:57;;;;;;;5.30;3.63;;;19.50;99.90;;;;;;4993980;28;20413;-65
2022/10/12 13:15:38;;;;;;;6.57;4.40;;;19.50;99.90;;;;;;4994170;28;20400;-63
2022/10/12 13:18:31;;;;;;;7.10;4.40;;;19.50;99.90;;;;;;4994018;28;20381;-63
2022/10/12 13:20:57;;;;;;;6.33;4.07;;;19.50;99.90;;;;;;4994027;28;20497;-65
2022/10/12 13:23:26;;;;;;;5.70;4.60;;;19.60;99.90;;;;;;4993548;28;20553;-63
2022/10/12 13:25:56;;;;;;;4.27;3.67;;;19.60;99.90;;;;;;5004905;28;20430;-64
2022/10/12 13:28:26;;;;;;;3.43;3.23;;;19.60;99.90;;;;;;5013481;28;20373;-64
2022/10/12 13:31:12;;;;;;;6.97;4.30;;;19.50;99.90;;;;;;5013645;28;20813;-65
2022/10/12 13:33:50;;;;;;;4.23;3.77;;;19.40;99.90;;;;;;5013235;28;20433;-63
2022/10/12 13:36:23;;;;;;;8.70;5.00;;;19.30;99.90;;;;;;4979876;28;20444;-65
2022/10/12 13:38:56;;;;;;;6.33;5.37;;;19.30;99.90;;;;;;5013321;28;20955;-63
2022/10/12 13:41:24;;;;;;;6.07;4.50;;;19.20;99.90;;;;;;4996255;28;20429;-64
2022/10/12 13:43:55;;;;;;;7.10;5.33;;;19.20;99.90;;;;;;4997954;28;20462;-63
2022/10/12 13:47:00;;;;;;;7.30;4.93;;;19.20;99.90;;;;;;5017435;28;20384;-63
2022/10/12 13:49:29;;;;;;;9.40;4.80;;;19.10;99.90;;;;;;5017439;28;20409;-64
2022/10/12 13:52:20;;;;;;;4.90;4.43;;;19.10;99.90;;;;;;5017269;28;20409;-64
2022/10/12 13:55:15;;;;;;;6.13;5.50;;;19.00;99.90;;;;;;4966627;28;20437;-65
2022/10/12 13:57:47;;;;;;;6.03;4.60;;;19.00;99.90;;;;;;5017123;28;20567;-65
2022/10/12 14:00:12;;;;;;;12.40;4.77;;;19.00;99.90;;;;;;4999624;28;20420;-65
2022/10/12 14:02:40;;;;;;;10.03;4.97;;;18.90;99.90;;;;;;5016974;28;20393;-65
2022/10/12 14:05:20;;;;;;;9.13;5.43;;;18.90;99.90;;;;;;4966414;28;20317;-65
2022/10/12 14:07:48;;;;;;;5.53;4.23;;;18.90;99.90;;;;;;4999600;28;20425;-63
2022/10/12 14:10:26;;;;;;;7.10;4.87;;;18.90;99.90;;;;;;4982866;28;20923;-63
2022/10/12 14:12:53;;;;;;;8.90;5.30;;;18.70;99.90;;;;;;4999821;28;20406;-64
2022/10/12 14:15:24;;;;;;;7.20;3.80;;;18.70;99.90;;;;;;4999248;28;20503;-68
2022/10/12 14:17:53;;;;;;;5.93;4.10;;;18.60;99.90;;;;;;5016656;28;20591;-62
2022/10/12 14:20:31;;;;;;;5.13;4.63;;;18.60;99.90;;;;;;4999505;28;20509;-65
2022/10/12 14:23:01;;;;;;;7.83;4.40;;;18.50;99.90;;;;;;5016420;28;20421;-64
2022/10/12 14:25:28;;;;;;;4.67;4.27;;;18.50;99.90;;;;;;5016504;28;20468;-63
2022/10/12 14:27:55;;;;;;;8.20;4.60;;;18.40;99.90;;;;;;5016699;28;20401;-64
2022/10/12 14:30:32;;;;;;;5.43;4.93;;;18.30;99.90;;;;;;5016521;28;20418;-63
2022/10/12 14:33:16;;;;;;;9.83;5.33;;;18.30;99.90;;;;;;5016522;28;20410;-64
2022/10/12 14:35:46;;;;;;;6.27;5.03;;;18.30;99.90;;;;;;5016556;28;20460;-62
2022/10/12 14:38:35;;;;;;;7.93;4.93;;;18.20;99.90;;;;;;5016612;28;20488;-64
2022/10/12 14:41:40;;;;;;;7.13;4.70;;;18.10;99.90;;;;;;5016210;28;20424;-65
2022/10/12 14:44:09;;;;;;;6.40;5.07;;;18.00;99.90;;;;;;5015806;28;20540;-63
2022/10/12 14:46:48;;;;;;;5.60;4.70;;;17.90;99.90;;;;;;5016318;28;20756;-64
2022/10/12 14:49:23;;;;;;;6.43;4.77;;;17.90;99.90;;;;;;5016300;28;20473;-64
2022/10/12 14:51:58;;;;;;;8.90;4.93;;;17.80;99.90;;;;;;5016317;28;20406;-63
2022/10/12 14:54:24;;;;;;;7.53;4.30;;;17.70;99.90;;;;;;5015837;28;20429;-64
2022/10/12 14:56:49;;;;;;;8.03;4.80;;;17.60;99.90;;;;;;5016075;28;20420;-64
2022/10/12 14:59:15;;;;;;;5.40;4.90;;;17.60;99.90;;;;;;5016197;28;20185;-63
2022/10/12 15:01:42;;;;;;;7.37;5.20;;;17.60;99.90;;;;;;4981607;28;20210;-63
2022/10/12 15:04:12;;;;;;;5.57;4.73;;;17.50;99.90;;;;;;4997768;28;20465;-61
2022/10/12 15:06:39;;;;;;;6.70;5.47;;;17.50;99.90;;;;;;5015889;28;20414;-63
2022/10/12 15:09:04;;;;;;;7.67;4.60;;;17.50;99.90;;;;;;5015887;28;20470;-64
2022/10/12 15:11:30;;;;;;;4.77;4.37;;;17.40;99.90;;;;;;5016041;28;20422;-64
2022/10/12 15:13:55;;;;;;;6.70;4.70;;;17.40;99.90;;;;;;5015426;28;20239;-62
2022/10/12 15:16:27;;;;;;;7.47;4.60;;;17.30;99.90;;;;;;5015716;28;20242;-64
2022/10/12 15:18:59;;;;;;;7.60;4.60;;;17.30;99.90;;;;;;5015910;28;20188;-64
2022/10/12 15:21:27;;;;;;;6.40;4.87;;;17.20;99.90;;;;;;5015414;28;20413;-63
2022/10/12 15:23:52;;;;;;;7.50;5.27;;;17.10;99.90;;;;;;5014907;28;20804;-63
2022/10/12 15:26:18;;;;;;;8.73;5.40;;;17.10;99.90;;;;;;5015231;28;20423;-63
2022/10/12 15:28:46;;;;;;;7.40;4.83;;;17.10;99.90;;;;;;4997957;28;20635;-62
2022/10/12 15:31:14;;;;;;;8.30;4.77;;;17.00;99.90;;;;;;4981356;28;20403;-64
2022/10/12 15:33:41;;;;;;;9.87;5.30;;;17.00;99.90;;;;;;5014640;28;20231;-62
2022/10/12 15:36:07;;;;;;;5.83;4.53;;;17.00;99.90;;;;;;5015339;28;20485;-63
2022/10/12 15:38:33;;;;;;;7.30;5.47;;;17.00;99.90;;;;;;5015134;28;20408;-63
2022/10/12 15:40:59;;;;;;;7.40;6.70;;;16.90;99.90;;;;;;5015210;28;20419;-64
2022/10/12 15:43:25;;;;;;;10.90;4.50;;;16.90;99.90;;;;;;5014857;28;20598;-63
2022/10/12 15:45:50;;;;;;;6.60;4.13;;;16.90;99.90;;;;;;5015557;28;20177;-62
2022/10/12 15:48:16;;;;;;;11.20;5.07;;;16.80;99.90;;;;;;5015073;28;20171;-64
2022/10/12 15:50:48;;;;;;;8.37;4.97;;;16.80;99.90;;;;;;5015286;28;20200;-63
2022/10/12 15:53:25;;;;;;;6.57;4.33;;;16.80;99.90;;;;;;5014761;28;20409;-62
2022/10/12 15:55:53;;;;;;;4.67;4.23;;;16.80;99.90;;;;;;4998551;28;20452;-63
2022/10/12 15:58:20;;;;;;;9.47;4.90;;;16.70;99.90;;;;;;4997894;28;20416;-63
2022/10/12 16:00:45;;;;;;;8.23;5.27;;;16.70;99.90;;;;;;5014964;28;20427;-62
2022/10/12 16:03:17;;;;;;;6.57;3.83;;;16.60;99.90;;;;;;5014403;28;20806;-64
2022/10/12 16:05:44;;;;;;;6.73;4.50;;;16.60;99.90;;;;;;5014309;28;20436;-62
2022/10/12 16:08:11;;;;;;;7.80;4.83;;;16.50;99.90;;;;;;5014860;28;20416;-64
2022/10/12 16:10:39;;;;;;;8.83;5.73;;;16.40;99.90;;;;;;5014813;28;20442;-61
2022/10/12 16:13:06;;;;;;;6.93;5.90;;;16.40;99.90;;;;;;5014257;28;20495;-62
2022/10/12 16:15:34;;;;;;;5.20;4.37;;;16.30;99.90;;;;;;5012735;28;20437;-61
2022/10/12 16:18:01;;;;;;;5.30;4.67;;;16.20;99.90;;;;;;4983780;28;20783;-65
2022/10/12 16:20:31;;;;;;;7.83;4.40;;;16.20;99.90;;;;;;5005939;28;20466;-62
2022/10/12 16:22:58;;;;;;;7.07;5.37;;;16.20;99.90;;;;;;4961387;28;20542;-63
2022/10/12 16:25:24;;;;;;;6.83;4.67;;;16.10;99.90;;;;;;4994828;28;20871;-64
2022/10/12 16:27:52;;;;;;;6.73;6.10;;;16.10;99.90;;;;;;4997930;28;20415;-66
2022/10/12 16:30:18;;;;;;;7.00;5.80;;;16.00;99.90;;;;;;5001225;28;20807;-63
2022/10/12 16:32:43;;;;;;;8.10;6.80;;;15.90;99.90;;;;;;5013514;28;20421;-64
2022/10/12 16:35:10;;;;;;;8.60;6.13;;;15.90;99.90;;;;;;5014115;28;20438;-66
2022/10/12 16:37:36;;;;;;;7.33;6.53;;;15.80;99.90;;;;;;5009087;28;20561;-63
2022/10/12 16:40:03;;;;;;;8.60;5.27;;;15.70;99.90;;;;;;4995381;28;20435;-65
2022/10/12 16:42:29;;;;;;;8.73;5.60;;;15.60;99.90;;;;;;4994766;28;20163;-64
2022/10/12 16:44:54;;;;;;;9.70;6.17;;;15.60;99.90;;;;;;5000598;28;20990;-64
2022/10/12 16:47:20;;;;;;;7.77;5.90;;;15.50;99.90;;;;;;5006643;28;20277;-64
2022/10/12 16:49:46;;;;;;;7.80;5.33;;;15.50;99.90;;;;;;4994719;28;20175;-64
2022/10/12 16:52:12;;;;;;;8.80;5.90;;;15.40;99.90;;;;;;5013735;28;20885;-64
2022/10/12 16:54:38;;;;;;;7.60;6.10;;;15.40;99.90;;;;;;5012182;28;20203;-65
2022/10/12 16:57:04;;;;;;;9.03;6.70;;;15.30;99.90;;;;;;4994093;28;20411;-62
2022/10/12 16:59:30;;;;;;;8.60;6.83;;;15.30;99.90;;;;;;5009316;28;20177;-65
2022/10/12 17:01:55;;;;;;;11.83;7.97;;;15.20;99.90;;;;;;4995759;28;20788;-65